Chambers, Arizona
Current Conditions -  °F | °C
As of 12:53 PM on Saturday 20 Dec 2014 (Local Time) from KRQE Reporting Station
Clear Clear  
Wind Chill: 44°   Ceiling: Unl
Heat Index: 44°   Visibility: 10mi
Dew Point: 25°   Wind: 0mph
Humidity: 47%   Direction: NA
Pressure: 30.13"   Gusts: NA
Location:  35.19°N, 109.44°W
Report Text: KRQE 201953Z AUTO 00000KT 10SM CLR 07/M04 A3013 RMK AO2 SLP181 T00671039 TSNO
Loading
Personal Weather Stations






























Interactive Weather Map New forecast layout! Learn more

10-Day Weather Forecast

Advertisements
Track Severe Weather on mobile